createdAt,value
2023-02-20T00:00:29.855Z,9.52
2023-02-20T00:02:57.437Z,5.65
2023-02-20T00:05:25.291Z,6.57
2023-02-20T00:07:54.166Z,5.05
2023-02-20T00:10:21.686Z,4.68
2023-02-20T00:12:49.183Z,3.72
2023-02-20T00:15:19.306Z,4.03
2023-02-20T00:17:48.282Z,7.85
2023-02-20T00:20:16.543Z,5.55
2023-02-20T00:22:44.178Z,3.58
2023-02-20T00:25:13.324Z,7.28
2023-02-20T00:27:43.073Z,3.50
2023-02-20T00:30:12.782Z,4.55
2023-02-20T00:32:40.321Z,8.23
2023-02-20T00:35:08.409Z,4.72
2023-02-20T00:37:35.940Z,4.95
2023-02-20T00:40:03.467Z,4.22
2023-02-20T00:42:32.359Z,7.85
2023-02-20T00:44:59.813Z,10.27
2023-02-20T00:47:27.396Z,9.90
2023-02-20T00:49:54.879Z,3.92
2023-02-20T00:52:22.654Z,4.18
2023-02-20T00:54:50.172Z,5.38
2023-02-20T00:57:17.724Z,3.53
2023-02-20T00:59:46.604Z,2.22
2023-02-20T01:02:14.196Z,2.90
2023-02-20T01:04:41.705Z,3.55
2023-02-20T01:07:09.276Z,5.57
2023-02-20T01:09:36.808Z,7.05
2023-02-20T01:12:04.588Z,8.52
2023-02-20T01:14:32.362Z,4.40
2023-02-20T01:17:01.297Z,7.10
2023-02-20T01:19:29.016Z,2.42
2023-02-20T01:21:56.550Z,2.92
2023-02-20T01:24:25.158Z,3.85
2023-02-20T01:26:52.685Z,5.95
2023-02-20T01:29:20.243Z,4.38
2023-02-20T01:31:48.455Z,6.68
2023-02-20T01:34:17.418Z,4.43
2023-02-20T01:36:48.910Z,6.30
2023-02-20T01:39:18.281Z,4.35
2023-02-20T01:41:47.368Z,2.47
2023-02-20T01:44:19.175Z,7.10
2023-02-20T01:46:52.071Z,4.50
2023-02-20T01:49:25.713Z,3.70
2023-02-20T01:51:56.769Z,5.30
2023-02-20T01:54:25.051Z,4.82
2023-02-20T01:56:53.577Z,7.60
2023-02-20T01:59:22.524Z,4.90
2023-02-20T02:01:50.071Z,7.03
2023-02-20T02:04:17.647Z,6.53
2023-02-20T02:06:49.751Z,6.00
2023-02-20T02:09:19.771Z,2.25
2023-02-20T02:11:48.220Z,3.25
2023-02-20T02:14:15.705Z,3.65
2023-02-20T02:16:48.639Z,4.55
2023-02-20T02:19:27.108Z,6.07
2023-02-20T02:22:21.866Z,3.70
2023-02-20T02:25:16.609Z,3.30
2023-02-20T02:28:05.041Z,5.75
2023-02-20T02:31:05.586Z,8.80
2023-02-20T02:33:46.821Z,7.80
2023-02-20T02:36:25.642Z,3.22
2023-02-20T02:38:57.479Z,2.50
2023-02-20T02:41:29.545Z,2.90
2023-02-20T02:44:00.959Z,8.32
2023-02-20T02:46:30.163Z,5.38
2023-02-20T02:49:04.051Z,1.90
2023-02-20T02:51:35.378Z,10.77
2023-02-20T02:54:06.617Z,3.22
2023-02-20T02:56:35.159Z,2.75
2023-02-20T02:59:02.835Z,17.42
2023-02-20T03:01:32.525Z,4.40
2023-02-20T03:04:01.511Z,2.90
2023-02-20T03:06:35.362Z,7.57
2023-02-20T03:09:07.305Z,4.40
2023-02-20T03:11:35.824Z,3.15
2023-02-20T03:14:23.251Z,4.10
2023-02-20T03:16:53.094Z,4.03
2023-02-20T03:19:22.850Z,2.25
2023-02-20T03:21:52.021Z,4.55
2023-02-20T03:24:21.188Z,5.88
2023-02-20T03:26:49.982Z,2.72
2023-02-20T03:29:19.671Z,5.95
2023-02-20T03:31:49.439Z,2.45
2023-02-20T03:34:36.560Z,2.72
2023-02-20T03:37:23.596Z,5.82
2023-02-20T03:40:12.814Z,3.03
2023-02-20T03:42:59.431Z,5.55
2023-02-20T03:45:27.887Z,1.75
2023-02-20T03:47:58.630Z,3.63
2023-02-20T03:50:43.479Z,2.42
2023-02-20T03:53:10.981Z,2.60
2023-02-20T03:55:39.924Z,2.38
2023-02-20T03:58:09.435Z,5.57
2023-02-20T04:00:40.185Z,3.65
2023-02-20T04:03:10.146Z,2.05
2023-02-20T04:05:39.336Z,4.45
2023-02-20T04:08:09.887Z,6.00
2023-02-20T04:10:39.756Z,2.97
2023-02-20T04:13:09.093Z,3.47
2023-02-20T04:15:36.705Z,1.48
2023-02-20T04:18:06.099Z,3.15
2023-02-20T04:20:33.867Z,3.92
2023-02-20T04:23:03.842Z,2.03
2023-02-20T04:25:34.401Z,3.85
2023-02-20T04:28:02.004Z,4.80
2023-02-20T04:30:30.989Z,8.68
2023-02-20T04:32:58.552Z,9.32
2023-02-20T04:35:26.366Z,7.70
2023-02-20T04:37:53.890Z,2.42
2023-02-20T04:40:22.745Z,5.03
2023-02-20T04:42:50.315Z,14.70
2023-02-20T04:45:18.180Z,8.07
2023-02-20T04:47:47.438Z,2.90
2023-02-20T04:50:17.996Z,3.80
2023-02-20T04:52:45.469Z,5.07
2023-02-20T04:55:12.982Z,2.20
2023-02-20T04:57:40.758Z,2.33
2023-02-20T05:00:10.401Z,4.07
2023-02-20T05:02:38.819Z,5.93
2023-02-20T05:05:15.830Z,3.90
2023-02-20T05:07:43.306Z,2.55
2023-02-20T05:10:13.984Z,5.22
2023-02-20T05:12:41.494Z,2.83
2023-02-20T05:15:09.205Z,4.35
2023-02-20T05:17:36.812Z,6.00
2023-02-20T05:20:04.527Z,8.20
2023-02-20T05:22:32.457Z,6.80
2023-02-20T05:25:00.888Z,9.73
2023-02-20T05:27:28.541Z,6.82
2023-02-20T05:29:56.861Z,5.25
2023-02-20T05:32:25.166Z,4.32
2023-02-20T05:34:52.911Z,6.30
2023-02-20T05:37:21.456Z,2.85
2023-02-20T05:39:50.330Z,4.78
2023-02-20T05:42:18.084Z,8.90
2023-02-20T05:44:45.684Z,6.25
2023-02-20T05:47:13.218Z,2.92
2023-02-20T05:49:40.789Z,3.40
2023-02-20T05:52:11.522Z,15.75
2023-02-20T05:54:39.910Z,2.25
2023-02-20T05:57:09.316Z,7.60
2023-02-20T05:59:36.885Z,3.75
2023-02-20T06:02:04.516Z,5.53
2023-02-20T06:04:32.106Z,8.00
2023-02-20T06:06:59.923Z,2.83
2023-02-20T06:09:27.554Z,5.05
2023-02-20T06:11:55.840Z,6.03
2023-02-20T06:14:26.658Z,6.53
2023-02-20T06:16:54.514Z,6.30
2023-02-20T06:19:23.213Z,2.80
2023-02-20T06:21:51.072Z,12.35
2023-02-20T06:24:19.027Z,5.82
2023-02-20T06:26:46.974Z,2.90
2023-02-20T06:29:16.137Z,7.03
2023-02-20T06:31:45.156Z,3.13
2023-02-20T06:34:13.176Z,7.85
2023-02-20T06:36:41.438Z,6.40
2023-02-20T06:39:09.812Z,3.55
2023-02-20T06:41:37.999Z,2.47
2023-02-20T06:44:05.720Z,4.53
2023-02-20T06:46:33.269Z,2.38
2023-02-20T06:49:02.236Z,3.58
2023-02-20T06:51:31.861Z,4.97
2023-02-20T06:54:00.009Z,2.90
2023-02-20T06:56:28.822Z,8.18
2023-02-20T06:58:56.625Z,4.53
2023-02-20T07:01:27.054Z,3.70
2023-02-20T07:03:55.242Z,2.08
2023-02-20T07:06:25.118Z,7.35
2023-02-20T07:08:52.940Z,5.95
2023-02-20T07:11:22.071Z,4.15
2023-02-20T07:13:49.731Z,8.82
2023-02-20T07:16:17.362Z,9.98
2023-02-20T07:18:44.977Z,17.08
2023-02-20T07:21:12.528Z,1.83
2023-02-20T07:23:41.357Z,5.85
2023-02-20T07:26:08.926Z,4.20
2023-02-20T07:28:36.849Z,6.07
2023-02-20T07:31:04.449Z,9.70
2023-02-20T07:33:32.028Z,3.72
2023-02-20T07:35:59.570Z,6.72
2023-02-20T07:38:28.052Z,11.05
2023-02-20T07:40:56.880Z,4.07
2023-02-20T07:43:24.397Z,4.50
2023-02-20T07:45:51.970Z,2.78
2023-02-20T07:48:19.570Z,3.85
2023-02-20T07:50:47.096Z,7.30
2023-02-20T07:53:15.443Z,7.47
2023-02-20T07:55:42.959Z,6.88
2023-02-20T07:58:11.921Z,3.88
2023-02-20T08:00:39.596Z,6.93
2023-02-20T08:03:07.142Z,5.70
2023-02-20T08:05:48.090Z,6.72
2023-02-20T08:08:16.425Z,6.18
2023-02-20T08:10:43.913Z,5.20
2023-02-20T08:13:12.742Z,14.73
2023-02-20T08:15:41.883Z,4.03
2023-02-20T08:18:22.109Z,6.45
2023-02-20T08:20:52.112Z,6.70
2023-02-20T08:23:20.125Z,7.72
2023-02-20T08:25:47.845Z,5.05
2023-02-20T08:28:17.131Z,4.07
2023-02-20T08:30:45.204Z,10.52
2023-02-20T08:33:12.710Z,4.47
2023-02-20T08:35:40.291Z,9.30
2023-02-20T08:38:08.929Z,2.55
2023-02-20T08:40:36.434Z,2.50
2023-02-20T08:43:03.965Z,8.10
2023-02-20T08:45:33.159Z,4.03
2023-02-20T08:48:02.142Z,5.50
2023-02-20T08:50:29.701Z,2.40
2023-02-20T08:52:57.206Z,4.50
2023-02-20T08:55:24.768Z,4.07
2023-02-20T08:57:53.029Z,2.45
2023-02-20T09:00:20.733Z,3.50
2023-02-20T09:02:49.739Z,2.60
2023-02-20T09:05:17.947Z,2.60
2023-02-20T09:07:46.068Z,6.10
2023-02-20T09:10:13.820Z,3.47
2023-02-20T09:12:42.295Z,3.70
2023-02-20T09:15:10.216Z,3.70
2023-02-20T09:17:37.727Z,4.65
2023-02-20T09:20:09.928Z,5.45
2023-02-20T09:22:37.791Z,3.40
2023-02-20T09:25:06.844Z,2.88
2023-02-20T09:27:34.441Z,6.25
2023-02-20T09:30:02.029Z,4.00
2023-02-20T09:32:30.339Z,4.00
2023-02-20T09:34:58.649Z,7.95
2023-02-20T09:37:27.544Z,6.30
2023-02-20T09:39:55.059Z,2.35
2023-02-20T09:42:32.593Z,10.85
2023-02-20T09:45:03.736Z,5.65
2023-02-20T09:47:43.385Z,2.70
2023-02-20T09:50:14.822Z,2.13
2023-02-20T09:52:45.854Z,7.32
2023-02-20T09:55:15.004Z,6.57
2023-02-20T09:57:43.281Z,4.43
2023-02-20T10:00:13.463Z,6.72
2023-02-20T10:02:42.857Z,4.97
2023-02-20T10:05:15.252Z,9.15
2023-02-20T10:07:44.148Z,6.25
2023-02-20T10:10:18.844Z,3.50
2023-02-20T10:12:49.792Z,6.35
2023-02-20T10:15:21.037Z,3.10
2023-02-20T10:17:54.554Z,7.53
2023-02-20T10:20:27.077Z,6.63
2023-02-20T10:22:59.884Z,6.57
2023-02-20T10:25:30.469Z,8.90
2023-02-20T10:28:01.701Z,5.97
2023-02-20T10:30:31.258Z,3.03
2023-02-20T10:33:02.683Z,10.43
2023-02-20T10:35:33.718Z,4.07
2023-02-20T10:38:05.151Z,4.70
2023-02-20T10:40:34.243Z,7.78
2023-02-20T10:43:03.503Z,7.68
2023-02-20T10:45:39.358Z,5.25
2023-02-20T10:48:07.986Z,4.60
2023-02-20T10:50:38.826Z,5.22
2023-02-20T10:53:10.980Z,5.85
2023-02-20T10:55:41.684Z,3.67
2023-02-20T10:58:11.842Z,5.28
2023-02-20T11:00:41.632Z,8.60
2023-02-20T11:03:11.135Z,5.32
2023-02-20T11:05:41.881Z,5.43
2023-02-20T11:08:10.802Z,5.32
2023-02-20T11:10:38.802Z,5.28
2023-02-20T11:13:10.409Z,6.05
2023-02-20T11:15:37.935Z,4.95
2023-02-20T11:18:06.871Z,4.78
2023-02-20T11:20:42.902Z,4.43
2023-02-20T11:23:12.393Z,5.45
2023-02-20T11:25:42.089Z,5.13
2023-02-20T11:28:11.208Z,8.15
2023-02-20T11:30:39.960Z,4.85
2023-02-20T11:33:12.705Z,5.10
2023-02-20T11:35:40.469Z,5.97
2023-02-20T11:38:27.413Z,4.95
2023-02-20T11:41:03.266Z,4.78
2023-02-20T11:43:33.239Z,5.72
2023-02-20T11:46:08.453Z,5.68
2023-02-20T11:48:35.979Z,6.28
2023-02-20T11:51:03.527Z,7.05
2023-02-20T11:53:33.133Z,3.92
2023-02-20T11:56:12.723Z,10.73
2023-02-20T11:58:41.290Z,4.78
2023-02-20T12:01:09.417Z,4.30
2023-02-20T12:03:37.301Z,5.25
2023-02-20T12:06:25.841Z,5.38
2023-02-20T12:08:56.471Z,3.50
2023-02-20T12:11:26.042Z,5.22
2023-02-20T12:13:54.033Z,4.38
2023-02-20T12:16:25.615Z,6.32
2023-02-20T12:18:57.589Z,7.10
2023-02-20T12:21:29.259Z,7.07
2023-02-20T12:24:03.281Z,4.03
2023-02-20T12:26:43.501Z,10.32
2023-02-20T12:29:16.763Z,10.52
2023-02-20T12:31:50.561Z,4.00
2023-02-20T12:34:42.224Z,6.80
2023-02-20T12:37:18.007Z,8.75
2023-02-20T12:39:54.492Z,7.75
2023-02-20T12:42:27.697Z,5.82
2023-02-20T12:45:10.106Z,9.20
2023-02-20T12:47:39.525Z,8.30
2023-02-20T12:50:14.521Z,4.18
2023-02-20T12:52:58.300Z,5.80
2023-02-20T12:55:30.605Z,2.93
2023-02-20T12:58:06.346Z,7.25
2023-02-20T13:00:35.565Z,7.25
2023-02-20T13:03:07.834Z,6.20
2023-02-20T13:05:36.573Z,7.00
2023-02-20T13:08:06.364Z,5.07
2023-02-20T13:10:36.416Z,10.90
2023-02-20T13:13:04.073Z,4.45
2023-02-20T13:15:37.394Z,7.63
2023-02-20T13:18:07.537Z,6.13
2023-02-20T13:20:39.338Z,7.50
2023-02-20T13:23:24.546Z,5.38
2023-02-20T13:25:54.260Z,8.50
2023-02-20T13:28:45.754Z,6.75
2023-02-20T13:31:15.977Z,6.80
2023-02-20T13:33:43.973Z,6.93
2023-02-20T13:36:33.617Z,10.55
2023-02-20T13:39:19.569Z,6.10
2023-02-20T13:42:04.328Z,12.02
2023-02-20T13:44:50.780Z,8.02
2023-02-20T13:47:36.309Z,7.68
2023-02-20T13:50:04.195Z,8.07
2023-02-20T13:52:34.876Z,6.70
2023-02-20T13:55:03.979Z,7.72
2023-02-20T13:57:34.383Z,7.22
2023-02-20T14:00:03.486Z,4.53
2023-02-20T14:02:31.602Z,6.53
2023-02-20T14:05:00.409Z,8.43
2023-02-20T14:07:29.171Z,7.30
2023-02-20T14:10:01.295Z,10.15
2023-02-20T14:12:28.776Z,9.98
2023-02-20T14:14:58.474Z,5.85
2023-02-20T14:17:26.332Z,8.98
2023-02-20T14:20:08.435Z,8.95
2023-02-20T14:22:40.013Z,9.02
2023-02-20T14:25:29.814Z,9.90
2023-02-20T14:28:13.526Z,6.93
2023-02-20T14:30:42.575Z,9.18
2023-02-20T14:33:21.479Z,5.63
2023-02-20T14:36:03.818Z,11.27
2023-02-20T14:38:46.342Z,11.32
2023-02-20T14:41:16.567Z,8.00
2023-02-20T14:43:46.708Z,12.88
2023-02-20T14:46:21.814Z,7.65
2023-02-20T14:48:49.372Z,12.48
2023-02-20T14:51:17.612Z,6.68
2023-02-20T14:53:46.025Z,8.32
2023-02-20T14:56:15.385Z,6.45
2023-02-20T14:58:43.068Z,5.95
2023-02-20T15:01:35.270Z,8.05
2023-02-20T15:04:05.174Z,10.43
2023-02-20T15:06:35.255Z,11.52
2023-02-20T15:09:12.784Z,9.57
2023-02-20T15:11:47.231Z,13.15
2023-02-20T15:14:18.707Z,10.15
2023-02-20T15:16:47.718Z,8.32
2023-02-20T15:19:22.220Z,10.45
2023-02-20T15:21:57.087Z,16.88
2023-02-20T15:24:30.286Z,11.90
2023-02-20T15:27:07.972Z,13.18
2023-02-20T15:29:35.995Z,11.02
2023-02-20T15:32:06.518Z,14.77
2023-02-20T15:34:35.519Z,13.27
2023-02-20T15:37:03.713Z,12.95
2023-02-20T15:39:32.200Z,17.88
2023-02-20T15:42:00.869Z,17.63
2023-02-20T15:44:30.130Z,15.35
2023-02-20T15:46:58.763Z,15.18
2023-02-20T15:49:27.619Z,15.48
2023-02-20T15:52:01.687Z,17.58
2023-02-20T15:54:32.425Z,14.85
2023-02-20T15:56:59.927Z,19.02
2023-02-20T15:59:27.444Z,17.08
2023-02-20T16:01:55.108Z,19.13
2023-02-20T16:04:22.650Z,18.23
2023-02-20T16:06:51.539Z,13.45
2023-02-20T16:09:19.043Z,13.13
2023-02-20T16:11:48.132Z,12.00
2023-02-20T16:14:16.714Z,11.80
2023-02-20T16:16:45.163Z,18.27
2023-02-20T16:19:15.041Z,11.35
2023-02-20T16:21:53.108Z,10.13
2023-02-20T16:24:26.872Z,14.02
2023-02-20T16:26:54.828Z,13.38
2023-02-20T16:29:23.819Z,14.95
2023-02-20T16:32:10.235Z,15.45
2023-02-20T16:34:38.976Z,15.32
2023-02-20T16:37:09.066Z,15.38
2023-02-20T16:39:38.011Z,11.50
2023-02-20T16:42:16.551Z,13.27
2023-02-20T16:44:45.269Z,15.30
2023-02-20T16:47:13.232Z,11.02
2023-02-20T16:49:40.756Z,8.77
2023-02-20T16:52:17.654Z,18.67
2023-02-20T16:54:48.081Z,14.32
2023-02-20T16:57:15.566Z,7.85
2023-02-20T16:59:43.338Z,6.80
2023-02-20T17:02:15.341Z,11.15
2023-02-20T17:04:42.928Z,10.18
2023-02-20T17:07:11.018Z,11.45
2023-02-20T17:09:44.327Z,8.70
2023-02-20T17:12:16.131Z,12.45
2023-02-20T17:14:43.673Z,12.63
2023-02-20T17:17:11.400Z,14.00
2023-02-20T17:19:39.414Z,13.30
2023-02-20T17:22:07.195Z,13.82
2023-02-20T17:24:34.725Z,11.13
2023-02-20T17:27:02.920Z,16.65
2023-02-20T17:29:31.748Z,12.38
2023-02-20T17:31:59.290Z,13.77
2023-02-20T17:34:27.146Z,10.70
2023-02-20T17:36:54.962Z,13.85
2023-02-20T17:39:23.905Z,15.30
2023-02-20T17:41:52.041Z,17.67
2023-02-20T17:44:25.965Z,13.63
2023-02-20T17:46:55.576Z,16.65
2023-02-20T17:49:24.337Z,16.80
2023-02-20T17:51:52.545Z,10.63
2023-02-20T17:54:22.926Z,10.75
2023-02-20T17:56:51.108Z,18.70
2023-02-20T17:59:19.050Z,12.77
2023-02-20T18:01:46.677Z,9.80
2023-02-20T18:04:15.533Z,16.15
2023-02-20T18:06:43.100Z,14.25
2023-02-20T18:09:11.103Z,12.25
2023-02-20T18:11:38.602Z,13.80
2023-02-20T18:14:06.896Z,12.52
2023-02-20T18:16:34.543Z,11.27
2023-02-20T18:19:02.283Z,8.90
2023-02-20T18:21:32.023Z,9.55
2023-02-20T18:23:59.750Z,8.80
2023-02-20T18:26:27.310Z,17.35
2023-02-20T18:28:54.857Z,15.63
2023-02-20T18:31:24.017Z,8.63
2023-02-20T18:33:51.983Z,9.65
2023-02-20T18:36:19.566Z,16.40
2023-02-20T18:38:48.421Z,8.73
2023-02-20T18:41:16.283Z,13.02
2023-02-20T18:43:46.413Z,8.48
2023-02-20T18:46:14.718Z,11.95
2023-02-20T18:48:43.011Z,13.45
2023-02-20T18:51:13.033Z,10.88
2023-02-20T18:53:40.547Z,10.98
2023-02-20T18:56:13.189Z,13.18
2023-02-20T18:58:40.841Z,12.43
2023-02-20T19:01:08.441Z,11.52
2023-02-20T19:03:35.970Z,23.45
2023-02-20T19:06:06.112Z,9.85
2023-02-20T19:08:34.036Z,13.15
2023-02-20T19:11:02.005Z,13.68
2023-02-20T19:13:32.570Z,10.55
2023-02-20T19:16:01.012Z,11.45
2023-02-20T19:18:28.585Z,12.45
2023-02-20T19:20:56.174Z,11.20
2023-02-20T19:23:23.728Z,11.05
2023-02-20T19:25:51.294Z,12.35
2023-02-20T19:28:18.765Z,11.48
2023-02-20T19:30:47.671Z,12.95
2023-02-20T19:33:15.139Z,8.82
2023-02-20T19:35:42.613Z,9.93
2023-02-20T19:38:10.172Z,10.82
2023-02-20T19:40:37.652Z,9.02
2023-02-20T19:43:05.120Z,13.57
2023-02-20T19:45:33.177Z,8.77
2023-02-20T19:48:02.013Z,10.48
2023-02-20T19:50:30.634Z,10.13
2023-02-20T19:52:58.435Z,12.85
2023-02-20T19:55:26.596Z,10.52
2023-02-20T19:57:54.122Z,8.80
2023-02-20T20:00:23.076Z,11.20
2023-02-20T20:02:52.086Z,6.60
2023-02-20T20:05:22.117Z,5.88
2023-02-20T20:07:50.521Z,5.60
2023-02-20T20:10:19.249Z,3.17
2023-02-20T20:12:49.706Z,5.40
2023-02-20T20:15:18.598Z,8.80
2023-02-20T20:17:46.370Z,4.38
2023-02-20T20:20:14.355Z,8.27
2023-02-20T20:22:43.427Z,5.50
2023-02-20T20:25:11.966Z,5.45
2023-02-20T20:27:39.482Z,6.15
2023-02-20T20:30:07.725Z,4.82
2023-02-20T20:32:35.614Z,4.03
2023-02-20T20:35:03.141Z,6.95
2023-02-20T20:37:30.777Z,6.53
2023-02-20T20:40:00.461Z,7.80
2023-02-20T20:42:29.078Z,6.55
2023-02-20T20:44:57.682Z,7.25
2023-02-20T20:47:25.890Z,6.07
2023-02-20T20:49:53.408Z,7.88
2023-02-20T20:52:22.658Z,5.57
2023-02-20T20:54:51.208Z,4.63
2023-02-20T20:57:20.966Z,6.90
2023-02-20T20:59:48.584Z,6.70
2023-02-20T21:02:16.354Z,6.20
2023-02-20T21:04:44.301Z,6.63
2023-02-20T21:07:11.805Z,5.50
2023-02-20T21:09:39.432Z,7.30
2023-02-20T21:12:12.526Z,7.78
2023-02-20T21:14:41.859Z,7.97
2023-02-20T21:17:16.850Z,7.32
2023-02-20T21:19:46.426Z,8.93
2023-02-20T21:22:15.032Z,7.35
2023-02-20T21:24:43.887Z,7.28
2023-02-20T21:27:11.414Z,11.15
2023-02-20T21:29:38.932Z,8.38
2023-02-20T21:32:08.183Z,9.93
2023-02-20T21:34:35.671Z,13.82
2023-02-20T21:37:04.996Z,10.25
2023-02-20T21:39:32.622Z,13.30
2023-02-20T21:42:17.436Z,15.02
2023-02-20T21:44:47.677Z,8.80
2023-02-20T21:47:16.937Z,9.65
2023-02-20T21:49:48.568Z,12.55
2023-02-20T21:52:18.838Z,9.02
2023-02-20T21:54:49.846Z,8.63
2023-02-20T21:57:20.825Z,13.00
2023-02-20T21:59:47.227Z,8.20
2023-02-20T22:02:17.224Z,13.00
2023-02-20T22:04:43.647Z,8.95
2023-02-20T22:07:28.660Z,11.05
2023-02-20T22:10:13.516Z,8.63
2023-02-20T22:12:58.725Z,12.93
2023-02-20T22:15:43.754Z,8.23
2023-02-20T22:18:31.227Z,8.68
2023-02-20T22:21:16.606Z,8.50
2023-02-20T22:24:03.133Z,10.02
2023-02-20T22:26:48.653Z,8.30
2023-02-20T22:29:33.628Z,7.43
2023-02-20T22:32:18.685Z,10.05
2023-02-20T22:35:11.777Z,12.23
2023-02-20T22:37:57.227Z,10.20
2023-02-20T22:40:42.083Z,11.68
2023-02-20T22:43:27.443Z,9.63
2023-02-20T22:46:14.442Z,8.63
2023-02-20T22:48:59.547Z,7.13
2023-02-20T22:51:46.517Z,6.43
2023-02-20T22:54:31.994Z,8.18
2023-02-20T22:57:17.259Z,7.00
2023-02-20T23:00:03.149Z,9.48
2023-02-20T23:02:48.659Z,5.28
2023-02-20T23:05:34.121Z,9.18
2023-02-20T23:08:20.840Z,9.00
2023-02-20T23:11:05.775Z,7.75
2023-02-20T23:13:50.602Z,7.78
2023-02-20T23:16:36.761Z,12.05
2023-02-20T23:19:21.963Z,7.80
2023-02-20T23:22:07.017Z,7.65
2023-02-20T23:24:53.166Z,8.60
2023-02-20T23:27:37.973Z,11.38
2023-02-20T23:30:23.445Z,7.55
2023-02-20T23:33:08.955Z,9.02
2023-02-20T23:35:54.120Z,10.35
2023-02-20T23:38:39.099Z,10.15
2023-02-20T23:41:26.606Z,11.25
2023-02-20T23:44:11.372Z,11.20
2023-02-20T23:47:01.746Z,10.95
2023-02-20T23:49:46.613Z,9.13
2023-02-20T23:52:31.498Z,8.60
2023-02-20T23:55:16.369Z,10.40
2023-02-20T23:58:02.476Z,8.63
